sensor_id;sensor_type;location;lat;lon;timestamp;P1;durP1;ratioP1;P2;durP2;ratioP2
23754;SDS011;12057;52.042;6.830;2022-11-20T00:04:27;48.95;;;18.95;;
23754;SDS011;12057;52.042;6.830;2022-11-20T00:09:28;49.25;;;19.48;;
23754;SDS011;12057;52.042;6.830;2022-11-20T00:14:28;45.58;;;17.17;;
23754;SDS011;12057;52.042;6.830;2022-11-20T00:19:29;51.38;;;20.30;;
23754;SDS011;12057;52.042;6.830;2022-11-20T00:24:30;55.90;;;19.08;;
23754;SDS011;12057;52.042;6.830;2022-11-20T00:29:31;50.85;;;18.60;;
23754;SDS011;12057;52.042;6.830;2022-11-20T00:34:36;49.55;;;18.00;;
23754;SDS011;12057;52.042;6.830;2022-11-20T00:39:37;43.47;;;17.98;;
23754;SDS011;12057;52.042;6.830;2022-11-20T00:44:38;58.88;;;20.42;;
23754;SDS011;12057;52.042;6.830;2022-11-20T00:49:39;57.65;;;20.80;;
23754;SDS011;12057;52.042;6.830;2022-11-20T00:54:40;67.32;;;21.77;;
23754;SDS011;12057;52.042;6.830;2022-11-20T00:59:41;67.95;;;21.30;;
23754;SDS011;12057;52.042;6.830;2022-11-20T01:04:42;58.13;;;21.02;;
23754;SDS011;12057;52.042;6.830;2022-11-20T01:09:43;51.28;;;18.25;;
23754;SDS011;12057;52.042;6.830;2022-11-20T01:14:43;50.50;;;19.85;;
23754;SDS011;12057;52.042;6.830;2022-11-20T01:19:44;56.03;;;20.02;;
23754;SDS011;12057;52.042;6.830;2022-11-20T01:24:49;53.92;;;19.85;;
23754;SDS011;12057;52.042;6.830;2022-11-20T01:29:49;52.28;;;19.27;;
23754;SDS011;12057;52.042;6.830;2022-11-20T01:34:50;46.58;;;18.88;;
23754;SDS011;12057;52.042;6.830;2022-11-20T01:39:51;41.55;;;17.67;;
23754;SDS011;12057;52.042;6.830;2022-11-20T01:44:53;51.10;;;15.95;;
23754;SDS011;12057;52.042;6.830;2022-11-20T01:49:58;46.67;;;17.17;;
23754;SDS011;12057;52.042;6.830;2022-11-20T01:55:37;48.20;;;17.70;;
23754;SDS011;12057;52.042;6.830;2022-11-20T02:00:39;42.80;;;17.08;;
23754;SDS011;12057;52.042;6.830;2022-11-20T02:11:12;44.53;;;15.77;;
23754;SDS011;12057;52.042;6.830;2022-11-20T02:26:55;40.85;;;18.30;;
23754;SDS011;12057;52.042;6.830;2022-11-20T02:31:57;53.83;;;19.17;;
23754;SDS011;12057;52.042;6.830;2022-11-20T02:37:01;47.53;;;17.45;;
23754;SDS011;12057;52.042;6.830;2022-11-20T02:42:02;44.05;;;16.63;;
23754;SDS011;12057;52.042;6.830;2022-11-20T02:47:02;42.83;;;17.70;;
23754;SDS011;12057;52.042;6.830;2022-11-20T02:52:03;44.40;;;16.40;;
23754;SDS011;12057;52.042;6.830;2022-11-20T02:57:04;38.63;;;15.15;;
23754;SDS011;12057;52.042;6.830;2022-11-20T03:02:05;42.70;;;16.52;;
23754;SDS011;12057;52.042;6.830;2022-11-20T03:07:07;50.60;;;16.45;;
23754;SDS011;12057;52.042;6.830;2022-11-20T03:12:08;51.67;;;17.70;;
23754;SDS011;12057;52.042;6.830;2022-11-20T03:17:09;49.45;;;17.52;;
23754;SDS011;12057;52.042;6.830;2022-11-20T03:22:09;47.45;;;17.27;;
23754;SDS011;12057;52.042;6.830;2022-11-20T03:27:10;35.15;;;16.15;;
23754;SDS011;12057;52.042;6.830;2022-11-20T03:32:11;45.03;;;15.75;;
23754;SDS011;12057;52.042;6.830;2022-11-20T03:37:12;39.53;;;15.60;;
23754;SDS011;12057;52.042;6.830;2022-11-20T03:42:12;42.78;;;16.98;;
23754;SDS011;12057;52.042;6.830;2022-11-20T03:47:32;49.53;;;16.33;;
23754;SDS011;12057;52.042;6.830;2022-11-20T03:52:32;52.25;;;17.02;;
23754;SDS011;12057;52.042;6.830;2022-11-20T03:57:36;43.53;;;15.95;;
23754;SDS011;12057;52.042;6.830;2022-11-20T04:02:37;36.05;;;15.05;;
23754;SDS011;12057;52.042;6.830;2022-11-20T04:07:38;45.63;;;15.95;;
23754;SDS011;12057;52.042;6.830;2022-11-20T04:12:41;37.33;;;13.90;;
23754;SDS011;12057;52.042;6.830;2022-11-20T04:17:42;40.80;;;15.80;;
23754;SDS011;12057;52.042;6.830;2022-11-20T04:22:43;43.55;;;15.77;;
23754;SDS011;12057;52.042;6.830;2022-11-20T04:27:44;35.95;;;14.95;;
23754;SDS011;12057;52.042;6.830;2022-11-20T04:32:44;52.15;;;15.98;;
23754;SDS011;12057;52.042;6.830;2022-11-20T04:37:45;36.30;;;14.52;;
23754;SDS011;12057;52.042;6.830;2022-11-20T04:42:46;37.05;;;14.05;;
23754;SDS011;12057;52.042;6.830;2022-11-20T04:47:47;37.25;;;16.00;;
23754;SDS011;12057;52.042;6.830;2022-11-20T04:52:47;40.38;;;14.90;;
23754;SDS011;12057;52.042;6.830;2022-11-20T04:57:49;40.60;;;15.25;;
23754;SDS011;12057;52.042;6.830;2022-11-20T05:02:51;37.83;;;15.00;;
23754;SDS011;12057;52.042;6.830;2022-11-20T05:07:52;34.15;;;14.93;;
23754;SDS011;12057;52.042;6.830;2022-11-20T05:12:53;39.42;;;14.52;;
23754;SDS011;12057;52.042;6.830;2022-11-20T05:17:53;40.70;;;15.52;;
23754;SDS011;12057;52.042;6.830;2022-11-20T05:22:57;54.78;;;19.00;;
23754;SDS011;12057;52.042;6.830;2022-11-20T05:27:58;49.45;;;17.30;;
23754;SDS011;12057;52.042;6.830;2022-11-20T05:32:59;40.83;;;15.93;;
23754;SDS011;12057;52.042;6.830;2022-11-20T05:37:59;42.45;;;16.02;;
23754;SDS011;12057;52.042;6.830;2022-11-20T05:43:00;40.20;;;14.77;;
23754;SDS011;12057;52.042;6.830;2022-11-20T05:48:01;43.20;;;14.93;;
23754;SDS011;12057;52.042;6.830;2022-11-20T05:53:02;48.05;;;16.17;;
23754;SDS011;12057;52.042;6.830;2022-11-20T05:58:02;53.65;;;16.58;;
23754;SDS011;12057;52.042;6.830;2022-11-20T06:03:03;45.28;;;15.68;;
23754;SDS011;12057;52.042;6.830;2022-11-20T06:08:04;47.15;;;17.42;;
23754;SDS011;12057;52.042;6.830;2022-11-20T06:13:05;42.50;;;16.27;;
23754;SDS011;12057;52.042;6.830;2022-11-20T06:18:05;59.42;;;22.38;;
23754;SDS011;12057;52.042;6.830;2022-11-20T06:23:06;70.43;;;26.63;;
23754;SDS011;12057;52.042;6.830;2022-11-20T06:28:07;87.72;;;32.13;;
23754;SDS011;12057;52.042;6.830;2022-11-20T06:33:11;45.13;;;17.73;;
23754;SDS011;12057;52.042;6.830;2022-11-20T06:38:12;43.50;;;18.60;;
23754;SDS011;12057;52.042;6.830;2022-11-20T06:43:13;49.83;;;16.60;;
23754;SDS011;12057;52.042;6.830;2022-11-20T06:48:14;50.05;;;17.88;;
23754;SDS011;12057;52.042;6.830;2022-11-20T06:53:14;48.40;;;16.90;;
23754;SDS011;12057;52.042;6.830;2022-11-20T06:58:16;50.83;;;19.33;;
23754;SDS011;12057;52.042;6.830;2022-11-20T07:03:17;53.50;;;17.10;;
23754;SDS011;12057;52.042;6.830;2022-11-20T07:08:18;42.40;;;17.02;;
23754;SDS011;12057;52.042;6.830;2022-11-20T07:13:19;39.45;;;16.15;;
23754;SDS011;12057;52.042;6.830;2022-11-20T07:18:20;49.95;;;18.20;;
23754;SDS011;12057;52.042;6.830;2022-11-20T07:23:21;43.35;;;17.90;;
23754;SDS011;12057;52.042;6.830;2022-11-20T07:28:22;44.97;;;16.15;;
23754;SDS011;12057;52.042;6.830;2022-11-20T07:33:22;72.25;;;21.98;;
23754;SDS011;12057;52.042;6.830;2022-11-20T07:38:23;46.03;;;17.75;;
23754;SDS011;12057;52.042;6.830;2022-11-20T07:43:25;44.70;;;15.07;;
23754;SDS011;12057;52.042;6.830;2022-11-20T07:48:25;45.33;;;17.25;;
23754;SDS011;12057;52.042;6.830;2022-11-20T07:53:26;78.70;;;24.55;;
23754;SDS011;12057;52.042;6.830;2022-11-20T07:58:28;87.22;;;28.17;;
23754;SDS011;12057;52.042;6.830;2022-11-20T08:03:29;50.10;;;21.85;;
23754;SDS011;12057;52.042;6.830;2022-11-20T08:08:30;61.90;;;22.77;;
23754;SDS011;12057;52.042;6.830;2022-11-20T08:13:30;46.58;;;21.52;;
23754;SDS011;12057;52.042;6.830;2022-11-20T08:18:49;59.53;;;22.23;;
23754;SDS011;12057;52.042;6.830;2022-11-20T08:23:50;67.93;;;25.27;;
23754;SDS011;12057;52.042;6.830;2022-11-20T08:28:54;60.28;;;23.50;;
23754;SDS011;12057;52.042;6.830;2022-11-20T08:33:56;53.40;;;20.80;;
23754;SDS011;12057;52.042;6.830;2022-11-20T08:38:57;59.25;;;22.23;;
23754;SDS011;12057;52.042;6.830;2022-11-20T08:44:01;66.85;;;22.40;;
23754;SDS011;12057;52.042;6.830;2022-11-20T08:49:07;54.00;;;22.23;;
23754;SDS011;12057;52.042;6.830;2022-11-20T08:54:09;59.03;;;21.35;;
23754;SDS011;12057;52.042;6.830;2022-11-20T09:04:11;43.27;;;15.70;;
23754;SDS011;12057;52.042;6.830;2022-11-20T09:09:14;59.05;;;24.25;;
23754;SDS011;12057;52.042;6.830;2022-11-20T09:19:15;64.67;;;24.20;;
23754;SDS011;12057;52.042;6.830;2022-11-20T09:29:17;61.40;;;24.60;;
23754;SDS011;12057;52.042;6.830;2022-11-20T09:34:17;61.38;;;24.92;;
23754;SDS011;12057;52.042;6.830;2022-11-20T09:39:18;76.38;;;25.35;;
23754;SDS011;12057;52.042;6.830;2022-11-20T09:55:14;63.70;;;22.90;;
23754;SDS011;12057;52.042;6.830;2022-11-20T10:00:16;44.70;;;20.20;;
23754;SDS011;12057;52.042;6.830;2022-11-20T10:05:22;56.28;;;20.05;;
23754;SDS011;12057;52.042;6.830;2022-11-20T10:10:38;50.63;;;19.87;;
23754;SDS011;12057;52.042;6.830;2022-11-20T10:26:05;44.85;;;20.38;;
23754;SDS011;12057;52.042;6.830;2022-11-20T10:31:27;44.78;;;19.48;;
23754;SDS011;12057;52.042;6.830;2022-11-20T10:36:33;48.05;;;19.48;;
23754;SDS011;12057;52.042;6.830;2022-11-20T10:41:44;41.08;;;18.33;;
23754;SDS011;12057;52.042;6.830;2022-11-20T10:46:51;149.05;;;42.28;;
23754;SDS011;12057;52.042;6.830;2022-11-20T10:51:56;48.17;;;20.50;;
23754;SDS011;12057;52.042;6.830;2022-11-20T11:02:14;54.30;;;22.25;;
23754;SDS011;12057;52.042;6.830;2022-11-20T11:12:51;36.25;;;16.83;;
23754;SDS011;12057;52.042;6.830;2022-11-20T11:17:52;42.30;;;18.85;;
23754;SDS011;12057;52.042;6.830;2022-11-20T11:27:59;30.58;;;14.10;;
23754;SDS011;12057;52.042;6.830;2022-11-20T11:33:06;35.17;;;16.20;;
23754;SDS011;12057;52.042;6.830;2022-11-20T11:38:12;41.55;;;18.98;;
23754;SDS011;12057;52.042;6.830;2022-11-20T11:43:20;35.95;;;14.93;;
23754;SDS011;12057;52.042;6.830;2022-11-20T11:48:54;35.22;;;14.23;;
23754;SDS011;12057;52.042;6.830;2022-11-20T11:53:59;32.58;;;13.73;;
23754;SDS011;12057;52.042;6.830;2022-11-20T11:59:01;38.55;;;15.23;;
23754;SDS011;12057;52.042;6.830;2022-11-20T12:09:28;33.92;;;14.73;;
23754;SDS011;12057;52.042;6.830;2022-11-20T12:14:47;42.30;;;14.27;;
23754;SDS011;12057;52.042;6.830;2022-11-20T12:19:50;34.80;;;14.95;;
23754;SDS011;12057;52.042;6.830;2022-11-20T12:24:53;42.03;;;16.85;;
23754;SDS011;12057;52.042;6.830;2022-11-20T12:35:23;38.85;;;15.95;;
23754;SDS011;12057;52.042;6.830;2022-11-20T13:06:50;197.93;;;74.97;;
23754;SDS011;12057;52.042;6.830;2022-11-20T13:16:59;41.10;;;17.35;;
23754;SDS011;12057;52.042;6.830;2022-11-20T13:22:23;41.63;;;18.13;;
23754;SDS011;12057;52.042;6.830;2022-11-20T13:27:25;45.95;;;18.73;;
23754;SDS011;12057;52.042;6.830;2022-11-20T13:32:26;58.60;;;20.53;;
23754;SDS011;12057;52.042;6.830;2022-11-20T13:37:38;58.75;;;22.23;;
23754;SDS011;12057;52.042;6.830;2022-11-20T13:43:26;52.45;;;19.77;;
23754;SDS011;12057;52.042;6.830;2022-11-20T13:48:22;47.20;;;20.02;;
23754;SDS011;12057;52.042;6.830;2022-11-20T13:58:53;51.10;;;19.48;;
23754;SDS011;12057;52.042;6.830;2022-11-20T14:04:08;50.55;;;20.33;;
23754;SDS011;12057;52.042;6.830;2022-11-20T14:09:24;51.13;;;22.38;;
23754;SDS011;12057;52.042;6.830;2022-11-20T14:14:30;67.10;;;22.55;;
23754;SDS011;12057;52.042;6.830;2022-11-20T14:19:33;55.97;;;22.85;;
23754;SDS011;12057;52.042;6.830;2022-11-20T14:24:35;64.00;;;25.13;;
23754;SDS011;12057;52.042;6.830;2022-11-20T14:29:37;69.00;;;25.33;;
23754;SDS011;12057;52.042;6.830;2022-11-20T14:34:39;77.18;;;25.02;;
23754;SDS011;12057;52.042;6.830;2022-11-20T14:39:48;69.90;;;27.55;;
23754;SDS011;12057;52.042;6.830;2022-11-20T14:44:52;92.38;;;33.45;;
23754;SDS011;12057;52.042;6.830;2022-11-20T14:49:56;64.25;;;24.52;;
23754;SDS011;12057;52.042;6.830;2022-11-20T14:54:58;59.22;;;23.88;;
23754;SDS011;12057;52.042;6.830;2022-11-20T15:00:08;64.63;;;25.23;;
23754;SDS011;12057;52.042;6.830;2022-11-20T15:05:21;67.77;;;25.17;;
23754;SDS011;12057;52.042;6.830;2022-11-20T15:10:50;78.93;;;28.63;;
23754;SDS011;12057;52.042;6.830;2022-11-20T15:15:56;70.65;;;26.88;;
23754;SDS011;12057;52.042;6.830;2022-11-20T15:21:03;76.20;;;27.98;;
23754;SDS011;12057;52.042;6.830;2022-11-20T15:26:10;69.45;;;27.52;;
23754;SDS011;12057;52.042;6.830;2022-11-20T15:31:13;63.30;;;24.13;;
23754;SDS011;12057;52.042;6.830;2022-11-20T15:36:15;65.93;;;23.80;;
23754;SDS011;12057;52.042;6.830;2022-11-20T15:41:16;65.65;;;26.08;;
23754;SDS011;12057;52.042;6.830;2022-11-20T15:46:18;74.23;;;24.77;;
23754;SDS011;12057;52.042;6.830;2022-11-20T15:56:57;70.38;;;24.40;;
23754;SDS011;12057;52.042;6.830;2022-11-20T16:01:58;61.33;;;23.42;;
23754;SDS011;12057;52.042;6.830;2022-11-20T16:06:59;62.33;;;24.95;;
23754;SDS011;12057;52.042;6.830;2022-11-20T16:11:59;72.57;;;26.50;;
23754;SDS011;12057;52.042;6.830;2022-11-20T16:17:00;70.50;;;24.67;;
23754;SDS011;12057;52.042;6.830;2022-11-20T16:22:01;70.55;;;24.40;;
23754;SDS011;12057;52.042;6.830;2022-11-20T16:32:03;86.30;;;29.57;;
23754;SDS011;12057;52.042;6.830;2022-11-20T16:37:04;68.18;;;26.30;;
23754;SDS011;12057;52.042;6.830;2022-11-20T16:42:05;72.50;;;26.70;;
23754;SDS011;12057;52.042;6.830;2022-11-20T16:47:05;72.90;;;27.02;;
23754;SDS011;12057;52.042;6.830;2022-11-20T16:52:06;72.63;;;28.33;;
23754;SDS011;12057;52.042;6.830;2022-11-20T16:57:07;99.03;;;32.53;;
23754;SDS011;12057;52.042;6.830;2022-11-20T17:02:08;81.57;;;31.07;;
23754;SDS011;12057;52.042;6.830;2022-11-20T17:07:09;82.30;;;32.50;;
23754;SDS011;12057;52.042;6.830;2022-11-20T17:12:11;93.07;;;31.67;;
23754;SDS011;12057;52.042;6.830;2022-11-20T17:17:12;93.87;;;31.63;;
23754;SDS011;12057;52.042;6.830;2022-11-20T17:22:12;90.65;;;31.38;;
23754;SDS011;12057;52.042;6.830;2022-11-20T17:27:13;89.38;;;33.58;;
23754;SDS011;12057;52.042;6.830;2022-11-20T17:32:14;93.32;;;33.90;;
23754;SDS011;12057;52.042;6.830;2022-11-20T17:37:15;96.13;;;34.08;;
23754;SDS011;12057;52.042;6.830;2022-11-20T17:42:16;101.85;;;34.88;;
23754;SDS011;12057;52.042;6.830;2022-11-20T17:47:25;100.35;;;35.70;;
23754;SDS011;12057;52.042;6.830;2022-11-20T17:52:26;98.22;;;36.55;;
23754;SDS011;12057;52.042;6.830;2022-11-20T17:57:27;103.95;;;35.67;;
23754;SDS011;12057;52.042;6.830;2022-11-20T18:02:46;97.75;;;33.85;;
23754;SDS011;12057;52.042;6.830;2022-11-20T18:07:50;108.57;;;36.67;;
23754;SDS011;12057;52.042;6.830;2022-11-20T18:12:52;104.20;;;35.40;;
23754;SDS011;12057;52.042;6.830;2022-11-20T18:17:53;102.80;;;33.97;;
23754;SDS011;12057;52.042;6.830;2022-11-20T18:22:54;93.28;;;33.30;;
23754;SDS011;12057;52.042;6.830;2022-11-20T18:27:54;96.85;;;32.88;;
23754;SDS011;12057;52.042;6.830;2022-11-20T18:32:55;93.07;;;33.47;;
23754;SDS011;12057;52.042;6.830;2022-11-20T18:37:56;90.72;;;34.58;;
23754;SDS011;12057;52.042;6.830;2022-11-20T18:42:57;93.95;;;33.85;;
23754;SDS011;12057;52.042;6.830;2022-11-20T18:48:16;108.32;;;34.20;;
23754;SDS011;12057;52.042;6.830;2022-11-20T18:53:17;114.65;;;35.17;;
23754;SDS011;12057;52.042;6.830;2022-11-20T18:58:17;94.63;;;33.83;;
23754;SDS011;12057;52.042;6.830;2022-11-20T19:03:19;107.68;;;37.53;;
23754;SDS011;12057;52.042;6.830;2022-11-20T19:08:26;117.40;;;40.45;;
23754;SDS011;12057;52.042;6.830;2022-11-20T19:13:37;112.05;;;36.00;;
23754;SDS011;12057;52.042;6.830;2022-11-20T19:18:43;110.80;;;35.22;;
23754;SDS011;12057;52.042;6.830;2022-11-20T19:23:51;107.32;;;34.63;;
23754;SDS011;12057;52.042;6.830;2022-11-20T19:29:04;122.45;;;39.05;;
23754;SDS011;12057;52.042;6.830;2022-11-20T19:34:10;108.40;;;35.17;;
23754;SDS011;12057;52.042;6.830;2022-11-20T19:39:15;117.47;;;36.33;;
23754;SDS011;12057;52.042;6.830;2022-11-20T19:44:20;128.18;;;39.20;;
23754;SDS011;12057;52.042;6.830;2022-11-20T19:49:21;108.15;;;36.05;;
23754;SDS011;12057;52.042;6.830;2022-11-20T19:54:30;117.97;;;36.35;;
23754;SDS011;12057;52.042;6.830;2022-11-20T19:59:38;99.97;;;33.28;;
23754;SDS011;12057;52.042;6.830;2022-11-20T20:04:43;92.03;;;32.55;;
23754;SDS011;12057;52.042;6.830;2022-11-20T20:09:49;84.70;;;30.90;;
23754;SDS011;12057;52.042;6.830;2022-11-20T20:14:53;89.10;;;30.92;;
23754;SDS011;12057;52.042;6.830;2022-11-20T20:19:54;69.75;;;24.65;;
23754;SDS011;12057;52.042;6.830;2022-11-20T20:25:02;65.55;;;23.88;;
23754;SDS011;12057;52.042;6.830;2022-11-20T20:30:11;67.00;;;22.00;;
23754;SDS011;12057;52.042;6.830;2022-11-20T20:35:12;61.22;;;22.38;;
23754;SDS011;12057;52.042;6.830;2022-11-20T20:40:27;69.07;;;22.40;;
23754;SDS011;12057;52.042;6.830;2022-11-20T20:51:07;50.70;;;20.08;;
23754;SDS011;12057;52.042;6.830;2022-11-20T20:56:12;58.97;;;22.05;;
23754;SDS011;12057;52.042;6.830;2022-11-20T21:01:19;63.75;;;23.35;;
23754;SDS011;12057;52.042;6.830;2022-11-20T21:06:21;64.70;;;21.13;;
23754;SDS011;12057;52.042;6.830;2022-11-20T21:16:31;49.80;;;18.67;;
23754;SDS011;12057;52.042;6.830;2022-11-20T21:21:40;63.75;;;21.27;;
23754;SDS011;12057;52.042;6.830;2022-11-20T21:27:03;57.78;;;20.25;;
23754;SDS011;12057;52.042;6.830;2022-11-20T21:32:09;56.00;;;20.67;;
23754;SDS011;12057;52.042;6.830;2022-11-20T21:37:11;69.93;;;23.55;;
23754;SDS011;12057;52.042;6.830;2022-11-20T21:42:13;67.30;;;22.05;;
23754;SDS011;12057;52.042;6.830;2022-11-20T21:47:15;65.97;;;23.38;;
23754;SDS011;12057;52.042;6.830;2022-11-20T21:52:20;73.35;;;25.95;;
23754;SDS011;12057;52.042;6.830;2022-11-20T21:57:24;65.55;;;24.35;;
23754;SDS011;12057;52.042;6.830;2022-11-20T22:02:29;80.53;;;25.63;;
23754;SDS011;12057;52.042;6.830;2022-11-20T22:07:32;79.07;;;28.70;;
23754;SDS011;12057;52.042;6.830;2022-11-20T22:12:38;80.47;;;30.20;;
23754;SDS011;12057;52.042;6.830;2022-11-20T22:17:47;91.15;;;28.50;;
23754;SDS011;12057;52.042;6.830;2022-11-20T22:23:16;87.72;;;28.98;;
23754;SDS011;12057;52.042;6.830;2022-11-20T22:28:20;94.00;;;26.50;;
23754;SDS011;12057;52.042;6.830;2022-11-20T22:33:23;81.88;;;27.63;;
23754;SDS011;12057;52.042;6.830;2022-11-20T22:38:28;79.32;;;26.67;;
23754;SDS011;12057;52.042;6.830;2022-11-20T22:43:35;94.80;;;28.77;;
23754;SDS011;12057;52.042;6.830;2022-11-20T22:48:39;80.80;;;29.02;;
23754;SDS011;12057;52.042;6.830;2022-11-20T22:53:55;91.00;;;28.75;;
23754;SDS011;12057;52.042;6.830;2022-11-20T22:59:02;94.20;;;31.08;;
23754;SDS011;12057;52.042;6.830;2022-11-20T23:04:04;96.03;;;29.08;;
23754;SDS011;12057;52.042;6.830;2022-11-20T23:09:06;97.45;;;31.42;;
23754;SDS011;12057;52.042;6.830;2022-11-20T23:14:12;97.75;;;30.70;;
23754;SDS011;12057;52.042;6.830;2022-11-20T23:19:14;98.68;;;30.60;;
23754;SDS011;12057;52.042;6.830;2022-11-20T23:24:15;103.78;;;31.90;;
23754;SDS011;12057;52.042;6.830;2022-11-20T23:29:16;117.78;;;31.88;;
23754;SDS011;12057;52.042;6.830;2022-11-20T23:34:16;99.95;;;31.77;;
23754;SDS011;12057;52.042;6.830;2022-11-20T23:39:17;116.55;;;34.40;;
23754;SDS011;12057;52.042;6.830;2022-11-20T23:44:18;108.65;;;31.90;;
23754;SDS011;12057;52.042;6.830;2022-11-20T23:49:19;100.03;;;32.13;;
23754;SDS011;12057;52.042;6.830;2022-11-20T23:54:19;104.95;;;33.00;;
23754;SDS011;12057;52.042;6.830;2022-11-20T23:59:20;107.43;;;33.58;;
